createdAt,value
2024-01-05T00:00:10.815Z,98584.53
2024-01-05T00:00:42.608Z,98585.50
2024-01-05T00:01:14.346Z,98584.53
2024-01-05T00:01:46.000Z,98583.53
2024-01-05T00:02:17.529Z,98580.03
2024-01-05T00:02:49.115Z,98572.91
2024-01-05T00:03:20.880Z,98580.03
2024-01-05T00:03:52.526Z,98573.75
2024-01-05T00:04:24.238Z,98569.28
2024-01-05T00:04:55.883Z,98571.91
2024-01-05T00:05:27.669Z,98574.56
2024-01-05T00:05:59.403Z,98567.59
2024-01-05T00:06:31.364Z,98563.13
2024-01-05T00:07:03.017Z,98560.63
2024-01-05T00:07:34.622Z,98561.47
2024-01-05T00:08:06.516Z,98555.34
2024-01-05T00:08:38.131Z,98550.34
2024-01-05T00:09:09.902Z,98553.16
2024-01-05T00:09:41.499Z,98548.50
2024-01-05T00:10:13.184Z,98541.34
2024-01-05T00:10:44.743Z,98543.19
2024-01-05T00:11:21.435Z,98538.88
2024-01-05T00:11:53.084Z,98522.28
2024-01-05T00:12:24.788Z,98526.75
2024-01-05T00:12:56.310Z,98531.25
2024-01-05T00:13:27.982Z,98525.78
2024-01-05T00:13:59.561Z,98523.13
2024-01-05T00:14:31.096Z,98531.75
2024-01-05T00:15:02.636Z,98528.25
2024-01-05T00:15:34.363Z,98533.41
2024-01-05T00:16:06.137Z,98527.09
2024-01-05T00:16:37.762Z,98536.91
2024-01-05T00:17:09.376Z,98545.03
2024-01-05T00:17:41.066Z,98551.47
2024-01-05T00:18:12.676Z,98554.97
2024-01-05T00:18:44.474Z,98554.97
2024-01-05T00:19:16.277Z,98564.59
2024-01-05T00:19:47.941Z,98567.91
2024-01-05T00:20:19.643Z,98566.94
2024-01-05T00:20:51.356Z,98566.94
2024-01-05T00:21:26.651Z,98567.09
2024-01-05T00:21:58.353Z,98575.88
2024-01-05T00:22:29.987Z,98577.53
2024-01-05T00:23:01.633Z,98574.88
2024-01-05T00:23:33.287Z,98572.25
2024-01-05T00:24:04.998Z,98569.59
2024-01-05T00:24:37.021Z,98575.72
2024-01-05T00:25:08.687Z,98577.53
2024-01-05T00:25:40.351Z,98574.06
2024-01-05T00:26:11.886Z,98565.09
2024-01-05T00:26:44.037Z,98565.94
2024-01-05T00:27:15.929Z,98562.44
2024-01-05T00:27:47.810Z,98555.34
2024-01-05T00:28:19.365Z,98556.00
2024-01-05T00:28:51.030Z,98563.97
2024-01-05T00:29:22.716Z,98549.00
2024-01-05T00:29:54.331Z,98553.34
2024-01-05T00:30:26.083Z,98541.75
2024-01-05T00:30:57.804Z,98549.72
2024-01-05T00:31:29.490Z,98550.53
2024-01-05T00:32:01.068Z,98555.03
2024-01-05T00:32:32.670Z,98547.06
2024-01-05T00:33:04.773Z,98546.19
2024-01-05T00:33:36.555Z,98542.56
2024-01-05T00:34:08.330Z,98554.84
2024-01-05T00:34:40.306Z,98550.53
2024-01-05T00:35:12.042Z,98555.84
2024-01-05T00:35:43.614Z,98546.19
2024-01-05T00:36:15.286Z,98555.84
2024-01-05T00:36:47.218Z,98540.06
2024-01-05T00:37:18.960Z,98542.88
2024-01-05T00:37:50.512Z,98538.22
2024-01-05T00:38:22.086Z,98542.06
2024-01-05T00:38:53.616Z,98538.38
2024-01-05T00:39:25.319Z,98534.59
2024-01-05T00:39:56.904Z,98528.63
2024-01-05T00:40:28.480Z,98526.78
2024-01-05T00:41:00.219Z,98521.50
2024-01-05T00:41:31.789Z,98524.28
2024-01-05T00:42:03.416Z,98520.81
2024-01-05T00:42:35.064Z,98516.50
2024-01-05T00:43:06.699Z,98522.63
2024-01-05T00:43:38.231Z,98526.28
2024-01-05T00:44:09.770Z,98519.47
2024-01-05T00:44:41.665Z,98519.31
2024-01-05T00:45:13.312Z,98519.97
2024-01-05T00:45:44.969Z,98519.97
2024-01-05T00:46:16.613Z,98517.47
2024-01-05T00:46:48.232Z,98515.50
2024-01-05T00:47:19.805Z,98514.50
2024-01-05T00:47:51.535Z,98507.38
2024-01-05T00:48:23.367Z,98515.34
2024-01-05T00:48:55.265Z,98514.50
2024-01-05T00:49:27.071Z,98507.56
2024-01-05T00:49:58.804Z,98507.56
2024-01-05T00:50:30.455Z,98510.88
2024-01-05T00:51:02.061Z,98506.53
2024-01-05T00:51:33.744Z,98499.59
2024-01-05T00:52:05.601Z,98505.88
2024-01-05T00:52:37.121Z,98502.56
2024-01-05T00:53:08.777Z,98497.25
2024-01-05T00:53:40.535Z,98495.56
2024-01-05T00:54:12.188Z,98491.28
2024-01-05T00:54:43.787Z,98491.28
2024-01-05T00:55:15.455Z,98492.25
2024-01-05T00:55:47.155Z,98492.25
2024-01-05T00:56:18.744Z,98494.25
2024-01-05T00:56:50.444Z,98493.94
2024-01-05T00:57:22.094Z,98493.06
2024-01-05T00:57:53.718Z,98487.94
2024-01-05T00:58:27.921Z,98498.38
2024-01-05T00:58:59.567Z,98492.41
2024-01-05T00:59:31.090Z,98491.44
2024-01-05T01:00:02.750Z,98497.88
2024-01-05T01:00:34.430Z,98494.25
2024-01-05T01:01:07.014Z,98494.25
2024-01-05T01:01:38.684Z,98495.22
2024-01-05T01:02:10.305Z,98495.06
2024-01-05T01:02:41.957Z,98493.94
2024-01-05T01:03:13.626Z,98488.63
2024-01-05T01:03:45.298Z,98484.13
2024-01-05T01:04:17.141Z,98483.31
2024-01-05T01:04:49.032Z,98488.63
2024-01-05T01:05:20.717Z,98480.81
2024-01-05T01:05:52.362Z,98480.28
2024-01-05T01:06:24.000Z,98474.97
2024-01-05T01:06:55.626Z,98478.63
2024-01-05T01:07:27.292Z,98479.59
2024-01-05T01:07:58.822Z,98476.81
2024-01-05T01:08:30.378Z,98485.59
2024-01-05T01:09:02.053Z,98480.28
2024-01-05T01:09:33.667Z,98477.47
2024-01-05T01:10:05.570Z,98479.81
2024-01-05T01:10:37.166Z,98478.16
2024-01-05T01:11:15.084Z,98475.50
2024-01-05T01:11:46.776Z,98477.16
2024-01-05T01:12:18.379Z,98478.00
2024-01-05T01:12:50.049Z,98475.16
2024-01-05T01:13:21.614Z,98473.34
2024-01-05T01:13:53.093Z,98481.31
2024-01-05T01:14:24.733Z,98473.19
2024-01-05T01:14:56.293Z,98467.72
2024-01-05T01:15:27.868Z,98471.22
2024-01-05T01:15:59.523Z,98468.38
2024-01-05T01:16:31.180Z,98464.91
2024-01-05T01:17:02.821Z,98461.41
2024-01-05T01:17:35.123Z,98465.91
2024-01-05T01:18:06.937Z,98464.22
2024-01-05T01:18:38.679Z,98465.06
2024-01-05T01:19:10.435Z,98471.22
2024-01-05T01:19:42.214Z,98471.22
2024-01-05T01:20:13.853Z,98467.72
2024-01-05T01:20:45.376Z,98469.38
2024-01-05T01:21:16.998Z,98461.25
2024-01-05T01:21:48.641Z,98461.41
2024-01-05T01:22:20.187Z,98470.06
2024-01-05T01:22:51.724Z,98465.59
2024-01-05T01:23:23.321Z,98456.63
2024-01-05T01:23:54.937Z,98470.88
2024-01-05T01:24:26.724Z,98470.06
2024-01-05T01:24:58.328Z,98473.53
2024-01-05T01:25:29.938Z,98468.22
2024-01-05T01:26:01.592Z,98466.41
2024-01-05T01:26:33.181Z,98465.41
2024-01-05T01:27:04.820Z,98464.44
2024-01-05T01:27:36.427Z,98460.28
2024-01-05T01:28:08.167Z,98461.94
2024-01-05T01:28:39.754Z,98455.78
2024-01-05T01:29:11.341Z,98459.28
2024-01-05T01:29:42.943Z,98450.47
2024-01-05T01:30:14.794Z,98459.44
2024-01-05T01:30:46.720Z,98454.28
2024-01-05T01:31:18.436Z,98464.75
2024-01-05T01:31:50.107Z,98457.94
2024-01-05T01:32:21.710Z,98468.38
2024-01-05T01:32:53.354Z,98467.56
2024-01-05T01:33:25.144Z,98469.38
2024-01-05T01:33:56.874Z,98457.78
2024-01-05T01:34:28.564Z,98460.44
2024-01-05T01:35:00.242Z,98458.59
2024-01-05T01:35:31.836Z,98460.44
2024-01-05T01:36:03.499Z,98459.75
2024-01-05T01:36:35.258Z,98454.28
2024-01-05T01:37:06.838Z,98449.81
2024-01-05T01:37:38.647Z,98453.28
2024-01-05T01:38:10.237Z,98444.66
2024-01-05T01:38:41.777Z,98451.81
2024-01-05T01:39:13.461Z,98454.47
2024-01-05T01:39:45.143Z,98450.78
2024-01-05T01:40:16.760Z,98450.78
2024-01-05T01:40:48.442Z,98457.78
2024-01-05T01:41:20.107Z,98454.13
2024-01-05T01:41:51.723Z,98447.00
2024-01-05T01:42:23.448Z,98447.00
2024-01-05T01:42:55.164Z,98447.16
2024-01-05T01:43:27.068Z,98443.69
2024-01-05T01:43:58.666Z,98438.22
2024-01-05T01:44:30.320Z,98441.69
2024-01-05T01:45:01.995Z,98436.53
2024-01-05T01:45:33.843Z,98436.69
2024-01-05T01:46:05.655Z,98443.00
2024-01-05T01:46:37.216Z,98439.50
2024-01-05T01:47:08.792Z,98444.66
2024-01-05T01:47:40.823Z,98443.00
2024-01-05T01:48:12.501Z,98443.16
2024-01-05T01:48:44.218Z,98447.78
2024-01-05T01:49:15.955Z,98446.16
2024-01-05T01:49:47.787Z,98449.47
2024-01-05T01:50:19.486Z,98445.28
2024-01-05T01:50:51.184Z,98446.31
2024-01-05T01:51:23.054Z,98439.16
2024-01-05T01:51:54.643Z,98443.50
2024-01-05T01:52:26.424Z,98440.84
2024-01-05T01:52:58.053Z,98444.16
2024-01-05T01:53:29.628Z,98441.34
2024-01-05T01:54:01.620Z,98441.19
2024-01-05T01:54:34.212Z,98438.53
2024-01-05T01:55:06.647Z,98448.63
2024-01-05T01:55:38.259Z,98434.69
2024-01-05T01:56:09.890Z,98441.66
2024-01-05T01:56:41.735Z,98441.97
2024-01-05T01:57:13.492Z,98423.56
2024-01-05T01:57:45.090Z,98435.00
2024-01-05T01:58:17.109Z,98433.19
2024-01-05T01:58:48.800Z,98433.84
2024-01-05T01:59:20.418Z,98419.59
2024-01-05T01:59:52.217Z,98422.91
2024-01-05T02:00:23.964Z,98429.06
2024-01-05T02:00:55.609Z,98428.22
2024-01-05T02:01:27.189Z,98431.72
2024-01-05T02:01:58.823Z,98433.53
2024-01-05T02:02:30.556Z,98430.72
2024-01-05T02:03:05.077Z,98425.25
2024-01-05T02:03:36.795Z,98433.22
2024-01-05T02:04:09.453Z,98434.88
2024-01-05T02:04:41.278Z,98434.03
2024-01-05T02:05:12.990Z,98426.91
2024-01-05T02:05:44.661Z,98432.38
2024-01-05T02:06:16.356Z,98421.91
2024-01-05T02:06:47.997Z,98425.56
2024-01-05T02:07:19.628Z,98422.91
2024-01-05T02:07:51.240Z,98418.28
2024-01-05T02:08:22.819Z,98412.81
2024-01-05T02:08:54.422Z,98416.28
2024-01-05T02:09:26.050Z,98415.47
2024-01-05T02:09:57.616Z,98409.34
2024-01-05T02:10:29.221Z,98410.16
2024-01-05T02:11:00.796Z,98410.97
2024-01-05T02:11:32.383Z,98410.00
2024-01-05T02:12:04.090Z,98409.84
2024-01-05T02:12:35.800Z,98410.81
2024-01-05T02:13:07.615Z,98416.97
2024-01-05T02:13:39.185Z,98413.31
2024-01-05T02:14:10.788Z,98408.00
2024-01-05T02:14:42.344Z,98414.16
2024-01-05T02:15:13.925Z,98419.47
2024-01-05T02:15:45.575Z,98406.03
2024-01-05T02:16:17.190Z,98406.03
2024-01-05T02:16:48.824Z,98401.53
2024-01-05T02:17:30.156Z,98397.22
2024-01-05T02:18:14.053Z,98400.88
2024-01-05T02:18:52.343Z,98402.69
2024-01-05T02:19:24.886Z,98394.72
2024-01-05T02:19:56.521Z,98402.69
2024-01-05T02:20:28.119Z,98398.22
2024-01-05T02:21:00.962Z,98397.38
2024-01-05T02:21:32.933Z,98396.72
2024-01-05T02:22:04.570Z,98397.84
2024-01-05T02:22:36.287Z,98395.22
2024-01-05T02:23:08.847Z,98399.69
2024-01-05T02:23:40.416Z,98396.06
2024-01-05T02:24:12.111Z,98393.25
2024-01-05T02:24:43.733Z,98402.19
2024-01-05T02:25:15.388Z,98393.25
2024-01-05T02:25:47.049Z,98393.25
2024-01-05T02:26:18.643Z,98390.44
2024-01-05T02:26:50.349Z,98387.94
2024-01-05T02:27:22.004Z,98389.56
2024-01-05T02:27:53.617Z,98384.28
2024-01-05T02:28:25.364Z,98390.44
2024-01-05T02:28:56.905Z,98389.41
2024-01-05T02:29:28.443Z,98381.44
2024-01-05T02:30:00.100Z,98384.97
2024-01-05T02:30:31.863Z,98386.75
2024-01-05T02:31:03.615Z,98383.44
2024-01-05T02:31:35.310Z,98383.59
2024-01-05T02:32:07.230Z,98379.28
2024-01-05T02:32:38.800Z,98387.25
2024-01-05T02:33:10.619Z,98378.78
2024-01-05T02:33:42.348Z,98377.97
2024-01-05T02:34:14.203Z,98381.44
2024-01-05T02:34:45.846Z,98378.47
2024-01-05T02:35:17.447Z,98375.81
2024-01-05T02:35:48.991Z,98375.66
2024-01-05T02:36:20.636Z,98381.78
2024-01-05T02:36:52.189Z,98375.47
2024-01-05T02:37:23.810Z,98381.59
2024-01-05T02:37:55.343Z,98371.84
2024-01-05T02:38:27.028Z,98378.13
2024-01-05T02:38:58.615Z,98375.47
2024-01-05T02:39:30.299Z,98376.31
2024-01-05T02:40:01.928Z,98374.50
2024-01-05T02:40:33.823Z,98370.84
2024-01-05T02:41:07.103Z,98381.28
2024-01-05T02:41:38.778Z,98371.53
2024-01-05T02:42:10.355Z,98374.19
2024-01-05T02:42:41.964Z,98375.97
2024-01-05T02:43:13.583Z,98379.50
2024-01-05T02:43:45.257Z,98369.84
2024-01-05T02:44:16.861Z,98373.31
2024-01-05T02:44:48.477Z,98370.66
2024-01-05T02:45:20.190Z,98372.50
2024-01-05T02:45:51.774Z,98370.50
2024-01-05T02:46:23.325Z,98364.53
2024-01-05T02:46:54.943Z,98369.69
2024-01-05T02:47:26.592Z,98366.22
2024-01-05T02:47:58.423Z,98364.38
2024-01-05T02:48:30.228Z,98367.19
2024-01-05T02:49:02.057Z,98362.72
2024-01-05T02:49:33.805Z,98368.00
2024-01-05T02:50:05.769Z,98361.72
2024-01-05T02:50:37.394Z,98362.53
2024-01-05T02:51:09.063Z,98366.38
2024-01-05T02:51:40.802Z,98366.38
2024-01-05T02:52:12.575Z,98363.72
2024-01-05T02:52:44.172Z,98360.06
2024-01-05T02:53:15.797Z,98357.56
2024-01-05T02:53:47.418Z,98360.06
2024-01-05T02:54:19.400Z,98362.72
2024-01-05T02:54:51.033Z,98348.44
2024-01-05T02:55:22.732Z,98363.56
2024-01-05T02:55:54.260Z,98361.88
2024-01-05T02:56:25.858Z,98366.53
2024-01-05T02:56:57.561Z,98369.19
2024-01-05T02:57:29.402Z,98361.88
2024-01-05T02:58:03.956Z,98362.72
2024-01-05T02:58:35.501Z,98356.56
2024-01-05T02:59:07.193Z,98361.06
2024-01-05T02:59:38.784Z,98361.88
2024-01-05T03:00:10.534Z,98361.88
2024-01-05T03:00:42.242Z,98358.56
2024-01-05T03:01:17.107Z,98363.56
2024-01-05T03:01:49.254Z,98365.19
2024-01-05T03:02:20.811Z,98364.53
2024-01-05T03:02:52.557Z,98355.59
2024-01-05T03:03:24.224Z,98355.75
2024-01-05T03:03:55.893Z,98360.91
2024-01-05T03:04:27.629Z,98359.06
2024-01-05T03:04:59.459Z,98359.88
2024-01-05T03:05:31.061Z,98359.06
2024-01-05T03:06:02.681Z,98358.25
2024-01-05T03:06:34.497Z,98359.22
2024-01-05T03:07:06.150Z,98362.72
2024-01-05T03:07:37.730Z,98352.94
2024-01-05T03:08:10.041Z,98352.09
2024-01-05T03:08:41.603Z,98351.28
2024-01-05T03:09:13.246Z,98352.94
2024-01-05T03:09:44.776Z,98359.88
2024-01-05T03:10:16.443Z,98354.59
2024-01-05T03:10:48.083Z,98351.28
2024-01-05T03:11:19.735Z,98352.75
2024-01-05T03:11:51.288Z,98348.28
2024-01-05T03:12:22.916Z,98353.59
2024-01-05T03:12:54.551Z,98354.59
2024-01-05T03:13:26.175Z,98351.28
2024-01-05T03:13:57.798Z,98349.94
2024-01-05T03:14:29.330Z,98340.50
2024-01-05T03:15:00.978Z,98353.59
2024-01-05T03:15:32.700Z,98347.63
2024-01-05T03:16:04.996Z,98341.31
2024-01-05T03:16:36.522Z,98343.13
2024-01-05T03:17:08.138Z,98349.09
2024-01-05T03:17:39.724Z,98338.66
2024-01-05T03:18:11.664Z,98343.31
2024-01-05T03:18:43.561Z,98339.66
2024-01-05T03:19:15.335Z,98341.47
2024-01-05T03:19:47.228Z,98343.47
2024-01-05T03:20:19.145Z,98341.47
2024-01-05T03:20:50.802Z,98342.31
2024-01-05T03:21:23.105Z,98336.00
2024-01-05T03:21:55.157Z,98337.84
2024-01-05T03:22:29.283Z,98329.72
2024-01-05T03:23:02.255Z,98330.69
2024-01-05T03:23:33.846Z,98328.19
2024-01-05T03:24:05.769Z,98325.53
2024-01-05T03:24:37.452Z,98332.03
2024-01-05T03:25:09.200Z,98334.34
2024-01-05T03:25:40.772Z,98331.69
2024-01-05T03:26:12.334Z,98337.00
2024-01-05T03:26:44.763Z,98334.16
2024-01-05T03:27:16.753Z,98328.19
2024-01-05T03:27:48.361Z,98332.53
2024-01-05T03:28:19.928Z,98335.19
2024-01-05T03:28:51.456Z,98323.75
2024-01-05T03:29:23.077Z,98323.75
2024-01-05T03:29:54.669Z,98327.53
2024-01-05T03:30:26.423Z,98329.38
2024-01-05T03:30:58.207Z,98322.22
2024-01-05T03:31:30.004Z,98323.03
2024-01-05T03:32:01.646Z,98326.41
2024-01-05T03:32:33.389Z,98321.91
2024-01-05T03:33:05.178Z,98319.41
2024-01-05T03:33:36.962Z,98314.09
2024-01-05T03:34:08.900Z,98322.88
2024-01-05T03:34:40.626Z,98324.56
2024-01-05T03:35:12.306Z,98323.75
2024-01-05T03:35:44.041Z,98324.56
2024-01-05T03:36:15.686Z,98319.25
2024-01-05T03:36:47.580Z,98322.22
2024-01-05T03:37:19.543Z,98324.72
2024-01-05T03:37:51.148Z,98317.56
2024-01-05T03:38:22.723Z,98319.41
2024-01-05T03:38:55.067Z,98330.03
2024-01-05T03:39:26.733Z,98323.75
2024-01-05T03:39:58.347Z,98323.75
2024-01-05T03:40:29.945Z,98308.47
2024-01-05T03:41:01.513Z,98323.91
2024-01-05T03:41:33.179Z,98324.06
2024-01-05T03:42:04.902Z,98328.34
2024-01-05T03:42:36.639Z,98312.44
2024-01-05T03:43:08.268Z,98317.75
2024-01-05T03:43:39.853Z,98318.75
2024-01-05T03:44:11.426Z,98316.09
2024-01-05T03:44:43.036Z,98314.25
2024-01-05T03:45:14.701Z,98306.47
2024-01-05T03:45:46.773Z,98321.25
2024-01-05T03:46:18.524Z,98316.09
2024-01-05T03:46:52.886Z,98317.75
2024-01-05T03:47:24.627Z,98314.25
2024-01-05T03:47:56.402Z,98319.41
2024-01-05T03:48:28.249Z,98305.16
2024-01-05T03:49:00.107Z,98305.47
2024-01-05T03:49:31.825Z,98297.69
2024-01-05T03:50:03.588Z,98311.78
2024-01-05T03:50:35.283Z,98308.13
2024-01-05T03:51:06.954Z,98314.25
2024-01-05T03:51:38.585Z,98303.81
2024-01-05T03:52:10.153Z,98304.47
2024-01-05T03:52:41.675Z,98305.47
2024-01-05T03:53:13.274Z,98299.31
2024-01-05T03:53:44.880Z,98300.16
2024-01-05T03:54:16.565Z,98307.44
2024-01-05T03:54:48.182Z,98302.13
2024-01-05T03:55:19.837Z,98300.16
2024-01-05T03:55:51.340Z,98298.34
2024-01-05T03:56:22.886Z,98295.69
2024-01-05T03:56:54.478Z,98294.88
2024-01-05T03:57:26.113Z,98294.88
2024-01-05T03:57:57.733Z,98300.16
2024-01-05T03:58:29.358Z,98296.66
2024-01-05T03:59:00.989Z,98288.69
2024-01-05T03:59:32.599Z,98301.81
2024-01-05T04:00:04.451Z,98297.34
2024-01-05T04:00:36.159Z,98289.38
2024-01-05T04:01:07.895Z,98298.19
2024-01-05T04:01:45.632Z,98301.66
2024-01-05T04:02:17.505Z,98295.53
2024-01-05T04:02:49.354Z,98284.25
2024-01-05T04:03:21.236Z,98297.53
2024-01-05T04:03:52.996Z,98291.34
2024-01-05T04:04:24.911Z,98287.88
2024-01-05T04:04:56.820Z,98283.41
2024-01-05T04:05:28.507Z,98290.38
2024-01-05T04:06:00.205Z,98283.22
2024-01-05T04:06:31.870Z,98281.44
2024-01-05T04:07:03.511Z,98281.59
2024-01-05T04:07:35.158Z,98288.53
2024-01-05T04:08:06.811Z,98284.25
2024-01-05T04:08:39.560Z,98288.53
2024-01-05T04:09:11.400Z,98279.59
2024-01-05T04:09:43.075Z,98280.56
2024-01-05T04:10:14.649Z,98284.25
2024-01-05T04:10:46.271Z,98279.91
2024-01-05T04:11:20.400Z,98287.88
2024-01-05T04:11:52.400Z,98282.56
2024-01-05T04:12:24.080Z,98284.25
2024-01-05T04:12:55.750Z,98283.22
2024-01-05T04:13:27.361Z,98291.19
2024-01-05T04:13:59.061Z,98282.25
2024-01-05T04:14:30.652Z,98280.56
2024-01-05T04:15:02.419Z,98278.09
2024-01-05T04:15:37.189Z,98273.63
2024-01-05T04:16:08.806Z,98282.25
2024-01-05T04:16:40.590Z,98275.25
2024-01-05T04:17:12.492Z,98278.94
2024-01-05T04:17:44.090Z,98280.91
2024-01-05T04:18:15.956Z,98277.59
2024-01-05T04:18:47.903Z,98275.59
2024-01-05T04:19:19.648Z,98278.25
2024-01-05T04:19:51.412Z,98273.78
2024-01-05T04:20:23.219Z,98273.78
2024-01-05T04:20:54.873Z,98275.44
2024-01-05T04:21:26.614Z,98278.09
2024-01-05T04:21:58.207Z,98273.63
2024-01-05T04:22:29.785Z,98278.94
2024-01-05T04:23:01.398Z,98276.28
2024-01-05T04:23:33.168Z,98271.97
2024-01-05T04:24:04.946Z,98270.97
2024-01-05T04:24:36.695Z,98274.63
2024-01-05T04:25:08.314Z,98271.97
2024-01-05T04:25:39.913Z,98277.25
2024-01-05T04:26:11.481Z,98270.28
2024-01-05T04:26:43.221Z,98275.59
2024-01-05T04:27:15.046Z,98273.09
2024-01-05T04:27:46.878Z,98277.44
2024-01-05T04:28:18.542Z,98268.47
2024-01-05T04:28:50.240Z,98272.13
2024-01-05T04:29:21.804Z,98273.78
2024-01-05T04:29:53.440Z,98271.97
2024-01-05T04:30:25.065Z,98280.56
2024-01-05T04:30:56.837Z,98268.97
2024-01-05T04:31:28.665Z,98276.94
2024-01-05T04:32:00.451Z,98276.13
2024-01-05T04:32:32.111Z,98266.31
2024-01-05T04:33:03.943Z,98275.44
2024-01-05T04:33:35.695Z,98261.34
2024-01-05T04:34:07.521Z,98264.16
2024-01-05T04:34:39.222Z,98272.94
2024-01-05T04:35:10.860Z,98278.09
2024-01-05T04:35:42.584Z,98266.81
2024-01-05T04:36:14.148Z,98264.16
2024-01-05T04:36:45.994Z,98276.44
2024-01-05T04:37:17.782Z,98270.28
2024-01-05T04:37:49.469Z,98277.25
2024-01-05T04:38:21.032Z,98274.94
2024-01-05T04:38:52.666Z,98267.78
2024-01-05T04:39:24.309Z,98274.94
2024-01-05T04:39:55.910Z,98274.28
2024-01-05T04:40:27.490Z,98274.28
2024-01-05T04:40:59.108Z,98272.28
2024-01-05T04:41:30.882Z,98263.00
2024-01-05T04:42:02.595Z,98268.31
2024-01-05T04:42:34.399Z,98272.78
2024-01-05T04:43:06.024Z,98268.97
2024-01-05T04:43:37.666Z,98266.97
2024-01-05T04:44:09.255Z,98268.81
2024-01-05T04:44:40.831Z,98267.78
2024-01-05T04:45:12.525Z,98269.31
2024-01-05T04:45:44.282Z,98266.66
2024-01-05T04:46:15.995Z,98264.00
2024-01-05T04:46:47.908Z,98264.81
2024-01-05T04:47:19.511Z,98273.63
2024-01-05T04:47:51.160Z,98270.97
2024-01-05T04:48:22.949Z,98276.28
2024-01-05T04:48:54.706Z,98268.31
2024-01-05T04:49:26.412Z,98273.63
2024-01-05T04:49:58.127Z,98272.63
2024-01-05T04:50:29.813Z,98272.63
2024-01-05T04:51:01.735Z,98269.13
2024-01-05T04:51:33.424Z,98269.13
2024-01-05T04:52:05.259Z,98275.25
2024-01-05T04:52:36.892Z,98268.97
2024-01-05T04:53:08.603Z,98274.28
2024-01-05T04:53:40.192Z,98268.31
2024-01-05T04:54:11.903Z,98270.81
2024-01-05T04:54:43.509Z,98269.13
2024-01-05T04:55:15.073Z,98272.63
2024-01-05T04:55:46.697Z,98271.63
2024-01-05T04:56:18.293Z,98274.28
2024-01-05T04:56:49.984Z,98271.78
2024-01-05T04:57:21.620Z,98273.78
2024-01-05T04:57:53.259Z,98271.78
2024-01-05T04:58:25.010Z,98278.78
2024-01-05T04:58:56.617Z,98268.97
2024-01-05T04:59:28.144Z,98275.25
2024-01-05T04:59:59.780Z,98275.25
2024-01-05T05:00:31.461Z,98276.94
2024-01-05T05:01:03.060Z,98278.78
2024-01-05T05:01:34.740Z,98268.81
2024-01-05T05:02:06.327Z,98268.00
2024-01-05T05:02:37.982Z,98266.31
2024-01-05T05:03:09.600Z,98271.63
2024-01-05T05:03:41.361Z,98269.97
2024-01-05T05:04:13.032Z,98266.66
2024-01-05T05:04:45.842Z,98265.13
2024-01-05T05:05:17.676Z,98265.13
2024-01-05T05:05:49.509Z,98264.97
2024-01-05T05:06:21.212Z,98262.16
2024-01-05T05:06:52.767Z,98258.53
2024-01-05T05:07:24.375Z,98262.84
2024-01-05T05:07:56.042Z,98259.34
2024-01-05T05:08:28.039Z,98264.66
2024-01-05T05:08:59.702Z,98263.00
2024-01-05T05:09:31.340Z,98264.81
2024-01-05T05:10:02.987Z,98263.34
2024-01-05T05:10:34.568Z,98266.97
2024-01-05T05:11:06.132Z,98263.66
2024-01-05T05:11:39.193Z,98269.97
2024-01-05T05:12:10.816Z,98271.94
2024-01-05T05:12:42.441Z,98277.09
2024-01-05T05:13:14.112Z,98276.28
2024-01-05T05:13:45.735Z,98265.47
2024-01-05T05:14:17.376Z,98274.28
2024-01-05T05:14:48.951Z,98273.25
2024-01-05T05:15:20.569Z,98271.47
2024-01-05T05:15:52.215Z,98268.97
2024-01-05T05:16:23.795Z,98270.63
2024-01-05T05:16:55.369Z,98265.31
2024-01-05T05:17:27.096Z,98267.28
2024-01-05T05:17:58.825Z,98267.28
2024-01-05T05:18:30.560Z,98266.16
2024-01-05T05:19:02.523Z,98259.19
2024-01-05T05:19:34.425Z,98268.66
2024-01-05T05:20:06.369Z,98261.50
2024-01-05T05:20:38.053Z,98259.66
2024-01-05T05:21:09.639Z,98260.34
2024-01-05T05:21:41.401Z,98261.19
2024-01-05T05:22:13.034Z,98258.53
2024-01-05T05:22:44.650Z,98261.19
2024-01-05T05:23:16.250Z,98263.00
2024-01-05T05:23:47.920Z,98263.81
2024-01-05T05:24:19.618Z,98256.69
2024-01-05T05:24:51.359Z,98258.53
2024-01-05T05:25:23.076Z,98260.19
2024-01-05T05:25:54.695Z,98254.03
2024-01-05T05:26:26.342Z,98257.69
2024-01-05T05:26:57.942Z,98254.34
2024-01-05T05:27:29.876Z,98252.56
2024-01-05T05:28:01.531Z,98254.88
2024-01-05T05:28:33.191Z,98252.22
2024-01-05T05:29:05.074Z,98257.53
2024-01-05T05:29:36.780Z,98254.88
2024-01-05T05:30:08.922Z,98255.03
2024-01-05T05:30:40.633Z,98251.38
2024-01-05T05:31:12.233Z,98254.88
2024-01-05T05:31:44.141Z,98253.03
2024-01-05T05:32:15.902Z,98247.09
2024-01-05T05:32:47.600Z,98249.75
2024-01-05T05:33:19.375Z,98254.03
2024-01-05T05:33:51.206Z,98253.03
2024-01-05T05:34:22.947Z,98253.03
2024-01-05T05:34:54.686Z,98256.53
2024-01-05T05:35:26.358Z,98249.56
2024-01-05T05:35:58.098Z,98250.06
2024-01-05T05:36:29.873Z,98252.72
2024-01-05T05:37:01.505Z,98251.88
2024-01-05T05:37:33.131Z,98250.22
2024-01-05T05:38:04.704Z,98254.84
2024-01-05T05:38:36.272Z,98246.06
2024-01-05T05:39:07.877Z,98251.22
2024-01-05T05:39:39.562Z,98256.53
2024-01-05T05:40:12.179Z,98256.19
2024-01-05T05:40:43.763Z,98250.88
2024-01-05T05:41:15.359Z,98251.53
2024-01-05T05:41:47.039Z,98245.41
2024-01-05T05:42:18.825Z,98249.91
2024-01-05T05:42:50.474Z,98250.88
2024-01-05T05:43:23.184Z,98253.88
2024-01-05T05:43:54.734Z,98243.25
2024-01-05T05:44:26.284Z,98252.03
2024-01-05T05:44:57.867Z,98244.75
2024-01-05T05:45:29.488Z,98249.03
2024-01-05T05:46:01.074Z,98244.44
2024-01-05T05:46:32.610Z,98252.38
2024-01-05T05:47:04.274Z,98250.56
2024-01-05T05:47:36.054Z,98249.75
2024-01-05T05:48:07.992Z,98241.78
2024-01-05T05:48:39.811Z,98246.22
2024-01-05T05:49:11.696Z,98245.25
2024-01-05T05:49:43.556Z,98247.75
2024-01-05T05:50:15.357Z,98246.75
2024-01-05T05:50:46.972Z,98246.75
2024-01-05T05:51:18.677Z,98242.44
2024-01-05T05:51:50.331Z,98241.44
2024-01-05T05:52:21.939Z,98238.78
2024-01-05T05:52:53.517Z,98246.56
2024-01-05T05:53:25.069Z,98246.41
2024-01-05T05:53:56.663Z,98248.22
2024-01-05T05:54:28.306Z,98247.41
2024-01-05T05:54:59.861Z,98256.34
2024-01-05T05:55:31.463Z,98246.56
2024-01-05T05:56:03.146Z,98237.59
2024-01-05T05:56:34.736Z,98247.56
2024-01-05T05:57:06.332Z,98242.75
2024-01-05T05:57:38.108Z,98244.44
2024-01-05T05:58:09.808Z,98242.59
2024-01-05T05:58:41.390Z,98246.75
2024-01-05T05:59:12.992Z,98241.25
2024-01-05T05:59:44.547Z,98249.41
2024-01-05T06:00:16.382Z,98245.09
2024-01-05T06:00:48.155Z,98243.91
2024-01-05T06:01:19.880Z,98238.59
2024-01-05T06:01:51.451Z,98233.28
2024-01-05T06:02:22.987Z,98238.59
2024-01-05T06:02:54.517Z,98242.09
2024-01-05T06:03:26.282Z,98241.09
2024-01-05T06:03:58.048Z,98234.94
2024-01-05T06:04:29.968Z,98231.47
2024-01-05T06:05:01.579Z,98239.44
2024-01-05T06:05:33.280Z,98229.66
2024-01-05T06:06:05.167Z,98228.81
2024-01-05T06:06:36.832Z,98237.94
2024-01-05T06:07:08.598Z,98235.28
2024-01-05T06:07:40.176Z,98239.94
2024-01-05T06:08:11.823Z,98232.78
2024-01-05T06:08:43.408Z,98231.97
2024-01-05T06:09:14.961Z,98231.81
2024-01-05T06:09:46.553Z,98226.34
2024-01-05T06:10:18.198Z,98235.28
2024-01-05T06:10:49.794Z,98230.81
2024-01-05T06:11:21.432Z,98232.47
2024-01-05T06:11:53.116Z,98229.81
2024-01-05T06:12:24.764Z,98236.94
2024-01-05T06:12:56.335Z,98228.16
2024-01-05T06:13:27.859Z,98224.66